Terminal Aerodrome Forecast
Issued by NWS Shreveport, LA

Home | Current Version | Previous Version | Text Only | Print | Product List | Glossary On
Versions: 1 2 3 4 5 6 7 8 9 10 11 12 13 14
000
FTUS44 KSHV 310500
TAFTXK
TAF
KTXK 310534Z 3106/0106 22004KT P6SM SKC
     FM311000 31006KT P6SM SCT040
     FM311500 35012G20KT P6SM BKN040
     FM010000 36004KT P6SM SKC=

USA.gov is the U.S. government's official web portal to all federal, state and local government web resources and services.